Time;durP1;ratioP1;P1;durP2;ratioP2;P2;SDS_P1;SDS_P2;PMS_P1;PMS_P2;Temp;Humidity;BMP_temperature;BMP_pressure;BME280_temperature;BME280_humidity;BME280_pressure;Samples;Min_cycle;Max_cycle;Signal;HPM_P1;HPM_P2
2022/05/30 00:02:46;;;;;;;;;;;22.90;41.10;;;;;;6357550;27;19952;-53
2022/05/30 00:05:49;;;;;;;;;;;23.30;41.40;;;;;;6359498;27;20067;-54
2022/05/30 00:08:51;;;;;;;;;;;23.10;41.10;;;;;;6363604;27;19938;-54
2022/05/30 00:11:52;;;;;;;;;;;23.30;41.30;;;;;;6361260;27;20015;-55
2022/05/30 00:14:54;;;;;;;;;;;22.90;41.10;;;;;;6361838;27;19930;-53
2022/05/30 00:17:55;;;;;;;;;;;23.20;41.30;;;;;;6359959;27;19927;-55
2022/05/30 00:20:58;;;;;;;;;;;22.90;41.00;;;;;;6346767;27;19965;-53
2022/05/30 00:23:59;;;;;;;;;;;23.20;41.20;;;;;;6362365;27;20355;-54
2022/05/30 00:27:01;;;;;;;;;;;23.30;41.30;;;;;;6365981;27;19931;-54
2022/05/30 00:30:03;;;;;;;;;;;23.20;41.20;;;;;;6359658;27;19997;-57
2022/05/30 00:33:04;;;;;;;;;;;23.30;41.30;;;;;;6362346;27;19931;-56
2022/05/30 00:36:06;;;;;;;;;;;23.20;41.40;;;;;;6359404;27;19931;-56
2022/05/30 00:39:08;;;;;;;;;;;22.80;41.00;;;;;;6363467;27;20540;-55
2022/05/30 00:42:13;;;;;;;;;;;23.10;41.10;;;;;;6360967;27;20152;-60
2022/05/30 00:45:14;;;;;;;;;;;23.00;41.10;;;;;;6346207;27;19923;-58
2022/05/30 00:48:17;;;;;;;;;;;22.70;41.10;;;;;;6360708;27;20760;-55
2022/05/30 00:51:21;;;;;;;;;;;22.70;40.90;;;;;;6353727;27;19938;-55
2022/05/30 00:54:28;;;;;;;;;;;23.10;41.30;;;;;;6357080;27;20856;-55
2022/05/30 00:57:30;;;;;;;;;;;22.90;41.10;;;;;;6349825;27;20484;-55
2022/05/30 01:00:31;;;;;;;;;;;23.00;41.10;;;;;;6329879;27;19933;-53
2022/05/30 01:06:47;;;;;;;;;;;23.10;41.20;;;;;;6350908;27;19927;-52
2022/05/30 01:09:50;;;;;;;;;;;22.90;41.10;;;;;;6354857;27;20466;-55
2022/05/30 01:12:53;;;;;;;;;;;23.00;41.20;;;;;;6349932;27;19931;-54
2022/05/30 01:15:55;;;;;;;;;;;23.00;41.00;;;;;;6328429;27;20035;-55
2022/05/30 01:19:01;;;;;;;;;;;22.90;41.00;;;;;;6355223;27;20144;-55
2022/05/30 01:22:10;;;;;;;;;;;23.00;41.00;;;;;;6350155;27;20809;-53
2022/05/30 01:25:18;;;;;;;;;;;23.00;41.00;;;;;;6349203;27;20733;-54
2022/05/30 01:28:40;;;;;;;;;;;22.30;40.70;;;;;;6349962;27;20231;-56
2022/05/30 01:31:41;;;;;;;;;;;22.70;40.80;;;;;;6339357;27;19930;-53
2022/05/30 01:34:43;;;;;;;;;;;23.00;41.00;;;;;;6350027;27;20773;-52
2022/05/30 01:37:44;;;;;;;;;;;23.10;41.20;;;;;;6348078;27;20494;-55
2022/05/30 01:40:46;;;;;;;;;;;22.60;40.90;;;;;;6351389;27;19927;-56
2022/05/30 01:43:48;;;;;;;;;;;22.90;41.10;;;;;;6349331;27;20053;-53
2022/05/30 01:46:49;;;;;;;;;;;23.00;41.10;;;;;;6347468;27;19993;-54
2022/05/30 01:49:51;;;;;;;;;;;23.10;41.20;;;;;;6350973;27;20339;-53
2022/05/30 01:52:57;;;;;;;;;;;22.60;41.00;;;;;;6343068;27;19930;-55
2022/05/30 01:56:19;;;;;;;;;;;23.40;41.40;;;;;;6346871;27;19966;-55
2022/05/30 01:59:22;;;;;;;;;;;22.90;41.10;;;;;;6350696;27;19938;-54
2022/05/30 02:02:44;;;;;;;;;;;22.70;41.00;;;;;;6349248;27;19927;-55
2022/05/30 02:05:45;;;;;;;;;;;23.00;41.30;;;;;;6352541;27;19933;-55
2022/05/30 02:08:47;;;;;;;;;;;22.70;41.10;;;;;;6351107;27;19926;-55
2022/05/30 02:11:49;;;;;;;;;;;22.50;41.00;;;;;;6352542;27;20419;-55
2022/05/30 02:15:06;;;;;;;;;;;22.70;41.10;;;;;;6348395;27;20209;-55
2022/05/30 02:18:07;;;;;;;;;;;22.90;41.20;;;;;;6328665;27;19930;-56
2022/05/30 02:21:09;;;;;;;;;;;22.50;41.00;;;;;;6350414;27;19927;-55
2022/05/30 02:24:10;;;;;;;;;;;22.60;41.10;;;;;;6349419;27;19934;-55
2022/05/30 02:27:12;;;;;;;;;;;23.00;41.40;;;;;;6351464;27;20667;-57
2022/05/30 02:30:15;;;;;;;;;;;22.70;41.10;;;;;;6349223;27;19927;-57
2022/05/30 02:36:41;;;;;;;;;;;23.10;41.30;;;;;;6348670;27;20610;-54
2022/05/30 02:39:45;;;;;;;;;;;23.00;41.30;;;;;;6349471;27;20324;-51
2022/05/30 02:43:06;;;;;;;;;;;23.00;41.40;;;;;;6350692;27;20419;-54
2022/05/30 02:46:13;;;;;;;;;;;23.00;41.40;;;;;;6345605;27;20175;-54
2022/05/30 02:49:16;;;;;;;;;;;22.90;41.30;;;;;;6343771;27;20453;-55
2022/05/30 02:52:18;;;;;;;;;;;22.80;41.30;;;;;;6348966;27;19927;-53
2022/05/30 02:55:19;;;;;;;;;;;22.40;41.10;;;;;;6335498;27;20477;-52
2022/05/30 02:58:24;;;;;;;;;;;23.00;41.40;;;;;;6333342;27;19931;-53
2022/05/30 03:01:26;;;;;;;;;;;23.00;41.50;;;;;;6351736;27;20202;-55
2022/05/30 03:04:28;;;;;;;;;;;22.80;41.30;;;;;;6351611;27;20103;-55
2022/05/30 03:07:29;;;;;;;;;;;23.00;41.50;;;;;;6350087;27;21346;-53
2022/05/30 03:10:33;;;;;;;;;;;22.80;41.40;;;;;;6345068;27;20108;-53
2022/05/30 03:13:36;;;;;;;;;;;22.40;41.10;;;;;;6351193;27;20251;-55
2022/05/30 03:16:38;;;;;;;;;;;22.70;41.30;;;;;;6351085;27;20362;-53
2022/05/30 03:19:40;;;;;;;;;;;22.40;41.10;;;;;;6358418;27;19938;-54
2022/05/30 03:22:41;;;;;;;;;;;22.50;41.30;;;;;;6363564;27;19974;-53
2022/05/30 03:26:03;;;;;;;;;;;22.40;41.30;;;;;;6353782;27;19978;-53
2022/05/30 03:29:06;;;;;;;;;;;22.80;41.30;;;;;;6330716;27;20504;-54
2022/05/30 03:32:09;;;;;;;;;;;22.60;41.30;;;;;;6340212;27;20331;-53
2022/05/30 03:35:12;;;;;;;;;;;22.80;41.40;;;;;;6346995;27;19927;-55
2022/05/30 03:38:18;;;;;;;;;;;22.60;41.30;;;;;;6353128;27;20704;-55
2022/05/30 03:41:36;;;;;;;;;;;22.80;41.50;;;;;;6351284;27;19931;-55
2022/05/30 03:44:43;;;;;;;;;;;22.40;41.30;;;;;;6354396;27;20529;-52
2022/05/30 03:47:46;;;;;;;;;;;22.50;41.30;;;;;;6355326;27;19931;-52
2022/05/30 03:50:49;;;;;;;;;;;22.80;41.50;;;;;;6357842;27;20017;-53
2022/05/30 03:53:51;;;;;;;;;;;22.60;41.40;;;;;;6357895;27;20022;-55
2022/05/30 03:56:52;;;;;;;;;;;22.30;41.40;;;;;;6353975;27;20085;-52
2022/05/30 03:59:54;;;;;;;;;;;22.60;41.60;;;;;;6353187;27;20648;-56
2022/05/30 04:02:56;;;;;;;;;;;22.30;41.80;;;;;;6354729;27;19937;-51
2022/05/30 04:05:58;;;;;;;;;;;22.60;41.90;;;;;;6353021;27;19927;-55
2022/05/30 04:09:01;;;;;;;;;;;22.60;42.00;;;;;;6351479;27;19931;-52
2022/05/30 04:12:23;;;;;;;;;;;22.30;41.90;;;;;;6354991;27;19969;-55
2022/05/30 04:15:44;;;;;;;;;;;22.80;42.10;;;;;;6335711;27;20427;-56
2022/05/30 04:18:46;;;;;;;;;;;22.50;42.00;;;;;;6343392;27;20191;-53
2022/05/30 04:21:48;;;;;;;;;;;22.40;41.90;;;;;;6347289;27;20345;-53
2022/05/30 04:24:56;;;;;;;;;;;22.60;42.00;;;;;;6350797;27;19927;-53
2022/05/30 04:27:58;;;;;;;;;;;22.50;42.10;;;;;;6346895;27;20036;-53
2022/05/30 04:31:04;;;;;;;;;;;22.20;41.90;;;;;;6346043;27;20333;-55
2022/05/30 04:34:07;;;;;;;;;;;22.20;41.90;;;;;;6348940;27;19974;-52
2022/05/30 04:37:09;;;;;;;;;;;22.60;42.10;;;;;;6347263;27;20263;-55
2022/05/30 04:40:13;;;;;;;;;;;22.20;42.00;;;;;;6345137;27;19931;-54
2022/05/30 04:43:26;;;;;;;;;;;22.70;42.20;;;;;;6347131;27;20373;-57
2022/05/30 04:46:50;;;;;;;;;;;22.70;42.30;;;;;;6347552;27;20167;-53
2022/05/30 04:49:52;;;;;;;;;;;22.40;42.10;;;;;;6344661;27;20336;-53
2022/05/30 04:52:57;;;;;;;;;;;22.60;42.20;;;;;;6345577;27;19926;-56
2022/05/30 04:56:19;;;;;;;;;;;22.50;42.20;;;;;;6336857;27;20182;-53
2022/05/30 04:59:38;;;;;;;;;;;22.70;42.30;;;;;;6350124;27;19923;-56
2022/05/30 05:02:39;;;;;;;;;;;22.50;42.10;;;;;;6340999;27;20473;-54
2022/05/30 05:05:41;;;;;;;;;;;22.20;42.30;;;;;;6340843;27;20274;-53
2022/05/30 05:08:47;;;;;;;;;;;22.60;42.30;;;;;;6347927;27;19970;-54
2022/05/30 05:12:06;;;;;;;;;;;22.60;42.30;;;;;;6350251;27;21525;-57
2022/05/30 05:15:26;;;;;;;;;;;22.10;42.10;;;;;;6358509;27;19931;-54
2022/05/30 05:18:39;;;;;;;;;;;22.70;42.70;;;;;;6359427;27;19965;-57
2022/05/30 05:21:43;;;;;;;;;;;22.50;42.30;;;;;;6359341;27;20724;-57
2022/05/30 05:24:44;;;;;;;;;;;22.30;42.20;;;;;;6341381;27;19954;-55
2022/05/30 05:27:56;;;;;;;;;;;22.60;42.50;;;;;;6353677;27;19931;-55
2022/05/30 05:30:57;;;;;;;;;;;22.90;42.70;;;;;;6343451;27;19998;-54
2022/05/30 05:33:59;;;;;;;;;;;22.50;42.60;;;;;;6354097;27;20985;-55
2022/05/30 05:37:01;;;;;;;;;;;22.10;42.10;;;;;;6329958;27;20054;-54
2022/05/30 05:40:07;;;;;;;;;;;22.60;42.60;;;;;;6352060;27;19931;-53
2022/05/30 05:43:09;;;;;;;;;;;22.60;42.10;;;;;;6344205;27;19939;-55
2022/05/30 05:46:12;;;;;;;;;;;22.40;42.60;;;;;;6346885;27;19931;-55
2022/05/30 05:49:14;;;;;;;;;;;22.30;42.00;;;;;;6328184;27;20743;-56
2022/05/30 05:52:16;;;;;;;;;;;22.50;42.30;;;;;;6349299;27;19931;-57
2022/05/30 05:55:19;;;;;;;;;;;22.50;42.20;;;;;;6346163;27;19930;-53
2022/05/30 05:58:21;;;;;;;;;;;22.30;42.20;;;;;;6347087;27;20002;-57
2022/05/30 06:01:23;;;;;;;;;;;22.60;42.30;;;;;;6345696;27;20745;-56
2022/05/30 06:04:26;;;;;;;;;;;22.90;42.40;;;;;;6333664;27;19963;-57
2022/05/30 06:07:48;;;;;;;;;;;22.50;42.30;;;;;;6343449;27;19922;-57
2022/05/30 06:14:16;;;;;;;;;;;22.80;42.30;;;;;;6320050;27;19931;-56
2022/05/30 06:17:18;;;;;;;;;;;22.20;42.00;;;;;;6321874;27;19971;-55
2022/05/30 06:20:19;;;;;;;;;;;22.60;42.80;;;;;;6319056;27;19931;-57
2022/05/30 06:23:23;;;;;;;;;;;22.70;42.20;;;;;;6320258;27;19931;-53
2022/05/30 06:26:36;;;;;;;;;;;22.80;42.10;;;;;;6312604;27;19931;-56
2022/05/30 06:29:56;;;;;;;;;;;22.40;42.00;;;;;;6317216;27;19935;-55
2022/05/30 06:32:57;;;;;;;;;;;22.60;42.10;;;;;;6306897;27;19930;-59
2022/05/30 06:36:19;;;;;;;;;;;22.40;41.90;;;;;;6291176;27;20015;-53
2022/05/30 06:39:21;;;;;;;;;;;22.70;42.00;;;;;;6284542;27;21669;-57
2022/05/30 06:42:36;;;;;;;;;;;22.80;41.80;;;;;;6295690;27;19977;-60
2022/05/30 06:45:56;;;;;;;;;;;22.60;41.90;;;;;;6283642;27;20035;-58
2022/05/30 06:49:16;;;;;;;;;;;22.70;41.90;;;;;;6261909;27;21580;-58
2022/05/30 06:52:24;;;;;;;;;;;22.70;42.00;;;;;;6242335;27;19939;-57
2022/05/30 06:55:27;;;;;;;;;;;22.40;41.70;;;;;;6268300;27;20046;-56
2022/05/30 06:58:29;;;;;;;;;;;22.90;41.80;;;;;;6233309;27;19937;-60
2022/05/30 07:01:32;;;;;;;;;;;22.60;41.80;;;;;;6213024;27;20043;-57
2022/05/30 07:04:47;;;;;;;;;;;22.90;42.00;;;;;;6182056;27;23048;-58
2022/05/30 07:08:07;;;;;;;;;;;22.70;41.80;;;;;;6213657;27;20051;-54
2022/05/30 07:11:17;;;;;;;;;;;22.50;40.80;;;;;;6197700;27;19930;-52
2022/05/30 07:14:19;;;;;;;;;;;23.00;42.10;;;;;;6174286;27;21687;-53
2022/05/30 07:17:24;;;;;;;;;;;23.00;42.10;;;;;;6197735;27;19931;-54
2022/05/30 07:20:26;;;;;;;;;;;23.00;42.20;;;;;;6150852;27;43715;-54
2022/05/30 07:23:46;;;;;;;;;;;23.10;42.00;;;;;;6167505;27;38046;-52
2022/05/30 07:27:07;;;;;;;;;;;22.70;41.80;;;;;;6145017;27;33588;-54
2022/05/30 07:30:26;;;;;;;;;;;22.60;41.70;;;;;;6153555;27;22378;-58
2022/05/30 07:33:48;;;;;;;;;;;23.10;41.90;;;;;;6141610;27;28952;-62
2022/05/30 07:37:06;;;;;;;;;;;22.70;41.60;;;;;;6171102;27;41546;-57
2022/05/30 07:40:28;;;;;;;;;;;23.10;41.60;;;;;;6153841;27;19930;-55
2022/05/30 07:43:45;;;;;;;;;;;23.10;41.60;;;;;;6155469;27;20060;-54
2022/05/30 07:47:07;;;;;;;;;;;23.00;41.50;;;;;;6144746;27;20925;-56
2022/05/30 07:50:18;;;;;;;;;;;23.20;41.50;;;;;;6170037;27;20057;-58
2022/05/30 07:53:35;;;;;;;;;;;23.10;41.50;;;;;;6169249;27;42759;-59
2022/05/30 07:56:47;;;;;;;;;;;23.30;42.10;;;;;;6189106;27;19938;-55
2022/05/30 07:59:49;;;;;;;;;;;23.10;41.50;;;;;;6163021;27;20058;-56
2022/05/30 08:02:51;;;;;;;;;;;22.90;41.30;;;;;;6133480;27;20032;-57
2022/05/30 08:06:02;;;;;;;;;;;23.10;42.20;;;;;;6149928;27;19938;-58
2022/05/30 08:09:23;;;;;;;;;;;23.20;41.40;;;;;;6156791;27;19930;-57
2022/05/30 08:12:47;;;;;;;;;;;23.20;41.60;;;;;;6151754;27;19931;-57
2022/05/30 08:16:01;;;;;;;;;;;23.00;41.60;;;;;;6159083;27;19931;-56
2022/05/30 08:19:05;;;;;;;;;;;23.10;41.40;;;;;;6137024;27;19962;-57
2022/05/30 08:22:10;;;;;;;;;;;23.40;41.50;;;;;;6169973;27;21779;-57
2022/05/30 08:25:14;;;;;;;;;;;23.20;41.50;;;;;;6171653;27;19938;-57
2022/05/30 08:28:17;;;;;;;;;;;23.00;41.50;;;;;;6169334;27;19931;-56
2022/05/30 08:31:19;;;;;;;;;;;23.20;41.50;;;;;;6143729;27;19937;-56
2022/05/30 08:34:41;;;;;;;;;;;23.40;41.70;;;;;;6175474;27;20080;-59
2022/05/30 08:37:43;;;;;;;;;;;23.30;41.50;;;;;;6164680;27;21201;-59
2022/05/30 08:44:01;;;;;;;;;;;23.00;41.30;;;;;;6159339;27;19931;-59
2022/05/30 08:47:24;;;;;;;;;;;23.20;41.40;;;;;;6175999;27;20009;-58
2022/05/30 08:50:31;;;;;;;;;;;23.00;41.30;;;;;;6174429;27;19937;-54
2022/05/30 08:53:42;;;;;;;;;;;23.20;40.80;;;;;;6183021;27;19931;-56
2022/05/30 08:56:43;;;;;;;;;;;23.30;41.50;;;;;;6183085;27;19937;-58
2022/05/30 09:00:05;;;;;;;;;;;23.30;41.50;;;;;;6172472;27;20015;-57
2022/05/30 09:03:17;;;;;;;;;;;23.00;41.30;;;;;;6144971;27;19930;-64
2022/05/30 09:06:21;;;;;;;;;;;23.60;42.20;;;;;;6166178;27;20073;-65
2022/05/30 09:09:27;;;;;;;;;;;23.60;42.60;;;;;;6176706;27;19969;-64
2022/05/30 09:12:45;;;;;;;;;;;23.30;41.90;;;;;;6189245;27;22147;-63
2022/05/30 09:16:02;;;;;;;;;;;23.40;42.40;;;;;;6178898;27;19986;-53
2022/05/30 09:19:08;;;;;;;;;;;23.50;42.00;;;;;;6170207;27;19989;-54
2022/05/30 09:22:10;;;;;;;;;;;23.30;41.90;;;;;;6174188;27;19931;-55
2022/05/30 09:29:10;;;;;;;;;;;23.50;41.90;;;;;;6149318;27;19937;-52
2022/05/30 09:32:36;;;;;;;;;;;23.80;42.00;;;;;;6175728;27;19989;-57
2022/05/30 09:36:12;;;;;;;;;;;23.30;41.50;;;;;;6162696;27;19931;-60
2022/05/30 09:39:43;;;;;;;;;;;23.90;41.90;;;;;;6171440;27;19938;-57
2022/05/30 09:42:49;;;;;;;;;;;23.80;41.70;;;;;;6121843;27;19942;-56
2022/05/30 09:45:51;;;;;;;;;;;23.50;41.50;;;;;;6147347;27;19984;-57
2022/05/30 09:49:16;;;;;;;;;;;23.60;41.50;;;;;;6180434;27;19931;-55
2022/05/30 09:52:26;;;;;;;;;;;24.10;41.70;;;;;;6160371;27;19983;-55
2022/05/30 09:55:33;;;;;;;;;;;23.70;41.90;;;;;;6199056;27;21671;-54
2022/05/30 09:58:44;;;;;;;;;;;24.00;41.30;;;;;;6182819;27;20286;-56
2022/05/30 10:01:56;;;;;;;;;;;23.80;41.20;;;;;;6126209;27;19931;-56
2022/05/30 10:04:59;;;;;;;;;;;24.10;41.60;;;;;;6142330;27;19938;-59
2022/05/30 10:08:02;;;;;;;;;;;24.10;41.30;;;;;;6180405;27;19961;-58
2022/05/30 10:11:30;;;;;;;;;;;24.20;41.30;;;;;;6180665;27;20073;-57
2022/05/30 10:14:34;;;;;;;;;;;24.00;40.90;;;;;;6171759;27;21126;-58
2022/05/30 10:18:21;;;;;;;;;;;23.60;40.70;;;;;;6189138;27;20917;-59
2022/05/30 10:21:27;;;;;;;;;;;24.00;40.80;;;;;;6205124;27;20880;-54
2022/05/30 10:28:35;;;;;;;;;;;24.30;41.10;;;;;;6198700;27;19931;-57
2022/05/30 10:32:00;;;;;;;;;;;24.20;40.90;;;;;;6217200;27;19931;-57
2022/05/30 10:35:09;;;;;;;;;;;24.40;41.10;;;;;;6231253;27;21098;-58
2022/05/30 10:38:20;;;;;;;;;;;24.10;40.80;;;;;;6233317;27;19938;-58
2022/05/30 10:41:25;;;;;;;;;;;24.20;41.00;;;;;;6188832;27;19931;-57
2022/05/30 10:44:32;;;;;;;;;;;24.00;40.80;;;;;;6247120;27;25095;-59
2022/05/30 10:47:38;;;;;;;;;;;23.80;40.60;;;;;;6232044;27;19930;-57
2022/05/30 10:50:46;;;;;;;;;;;24.20;40.90;;;;;;6230717;27;20000;-57
2022/05/30 10:53:56;;;;;;;;;;;24.00;40.80;;;;;;6267900;27;21265;-57
2022/05/30 10:57:16;;;;;;;;;;;24.10;40.80;;;;;;6282770;27;19935;-52
2022/05/30 11:00:19;;;;;;;;;;;24.20;40.90;;;;;;6253336;27;19930;-56
2022/05/30 11:03:23;;;;;;;;;;;24.20;40.90;;;;;;6244300;27;21468;-57
2022/05/30 11:06:27;;;;;;;;;;;24.20;40.90;;;;;;6272582;27;19931;-57
2022/05/30 11:09:35;;;;;;;;;;;24.10;40.90;;;;;;6193293;27;20069;-56
2022/05/30 11:12:38;;;;;;;;;;;23.80;40.80;;;;;;6256840;27;20015;-59
2022/05/30 11:15:45;;;;;;;;;;;24.10;41.00;;;;;;6223970;27;19949;-58
2022/05/30 11:18:59;;;;;;;;;;;24.20;41.00;;;;;;6260107;27;19931;-59
2022/05/30 11:22:19;;;;;;;;;;;24.00;40.80;;;;;;6240102;27;19931;-60
2022/05/30 11:25:57;;;;;;;;;;;24.30;41.10;;;;;;6232345;27;19934;-59
2022/05/30 11:29:08;;;;;;;;;;;24.20;40.80;;;;;;6226215;27;21267;-56
2022/05/30 11:32:14;;;;;;;;;;;24.30;40.90;;;;;;6217760;27;20961;-58
2022/05/30 11:35:23;;;;;;;;;;;24.20;40.70;;;;;;6211409;27;19931;-57
2022/05/30 11:38:35;;;;;;;;;;;24.10;40.70;;;;;;6220475;27;20057;-55
2022/05/30 11:41:43;;;;;;;;;;;24.30;40.60;;;;;;6229591;27;21324;-61
2022/05/30 11:44:47;;;;;;;;;;;24.40;40.60;;;;;;6158302;27;21109;-59
2022/05/30 11:47:57;;;;;;;;;;;24.20;40.50;;;;;;6190240;27;19931;-56
2022/05/30 11:51:05;;;;;;;;;;;24.20;40.40;;;;;;6176632;27;19945;-59
2022/05/30 11:54:56;;;;;;;;;;;24.30;40.40;;;;;;6159973;27;19931;-57
2022/05/30 11:58:26;;;;;;;;;;;24.20;40.20;;;;;;6164412;27;19930;-58
2022/05/30 12:01:54;;;;;;;;;;;24.40;40.60;;;;;;6074732;27;22092;-58
2022/05/30 12:05:06;;;;;;;;;;;24.20;40.40;;;;;;6092581;27;19935;-57
2022/05/30 12:08:22;;;;;;;;;;;24.30;40.50;;;;;;6092197;27;19942;-56
2022/05/30 12:11:42;;;;;;;;;;;24.40;40.50;;;;;;6138959;27;19937;-56
2022/05/30 12:15:05;;;;;;;;;;;24.40;40.50;;;;;;6148696;27;19931;-59
2022/05/30 12:24:53;;;;;;;;;;;24.30;40.50;;;;;;6178893;27;19931;-56
2022/05/30 12:27:56;;;;;;;;;;;24.10;40.40;;;;;;6188641;27;20053;-59
2022/05/30 12:30:58;;;;;;;;;;;24.30;40.60;;;;;;6176564;27;19931;-58
2022/05/30 12:33:59;;;;;;;;;;;24.00;40.30;;;;;;6155869;27;19938;-56
2022/05/30 12:37:05;;;;;;;;;;;24.50;40.80;;;;;;6189769;27;22310;-59
2022/05/30 12:40:09;;;;;;;;;;;24.20;40.60;;;;;;6144337;27;19974;-59
2022/05/30 12:43:15;;;;;;;;;;;24.20;40.50;;;;;;6175335;27;19930;-56
2022/05/30 12:46:19;;;;;;;;;;;24.00;40.40;;;;;;6194573;27;20116;-58
2022/05/30 12:49:30;;;;;;;;;;;24.40;40.50;;;;;;6167101;27;19931;-58
2022/05/30 12:52:38;;;;;;;;;;;24.20;40.40;;;;;;6184878;27;20045;-57
2022/05/30 12:55:41;;;;;;;;;;;24.50;40.50;;;;;;6174345;27;19937;-55
2022/05/30 12:58:55;;;;;;;;;;;24.20;40.40;;;;;;6150906;27;19931;-58
2022/05/30 13:01:57;;;;;;;;;;;24.30;40.50;;;;;;6137695;27;19937;-59
2022/05/30 13:05:15;;;;;;;;;;;24.20;40.50;;;;;;6049003;27;19946;-57
2022/05/30 13:08:31;;;;;;;;;;;24.30;40.40;;;;;;6090900;27;19938;-55
2022/05/30 13:11:45;;;;;;;;;;;24.00;40.30;;;;;;6139563;27;20061;-58
2022/05/30 13:14:57;;;;;;;;;;;24.10;40.20;;;;;;6127509;27;21182;-56
2022/05/30 13:18:03;;;;;;;;;;;24.10;40.30;;;;;;6188984;27;19977;-58
2022/05/30 13:21:06;;;;;;;;;;;24.30;40.40;;;;;;6184678;27;20010;-58
2022/05/30 13:24:22;;;;;;;;;;;24.60;40.60;;;;;;6159844;27;20061;-57
2022/05/30 13:27:26;;;;;;;;;;;24.20;40.40;;;;;;6145123;27;19938;-57
2022/05/30 13:30:29;;;;;;;;;;;24.20;40.40;;;;;;6178464;27;21357;-54
2022/05/30 13:33:33;;;;;;;;;;;24.30;40.40;;;;;;6159664;27;20320;-59
2022/05/30 13:36:34;;;;;;;;;;;23.60;40.00;;;;;;6166167;27;19998;-58
2022/05/30 13:39:36;;;;;;;;;;;24.30;40.30;;;;;;6170771;27;20958;-56
2022/05/30 13:42:52;;;;;;;;;;;24.20;40.20;;;;;;6148543;27;19970;-59
2022/05/30 13:45:57;;;;;;;;;;;24.20;40.10;;;;;;6152321;27;26147;-60
2022/05/30 13:48:58;;;;;;;;;;;24.40;40.20;;;;;;6159521;27;22744;-63
2022/05/30 13:52:01;;;;;;;;;;;24.30;40.10;;;;;;6178129;27;20049;-57
2022/05/30 13:55:05;;;;;;;;;;;23.90;39.90;;;;;;6181378;27;20139;-62
2022/05/30 13:58:43;;;;;;;;;;;24.10;40.00;;;;;;6143617;27;21204;-60
2022/05/30 14:01:46;;;;;;;;;;;24.00;40.00;;;;;;6164671;27;19976;-59
2022/05/30 14:04:49;;;;;;;;;;;23.90;39.80;;;;;;6163090;27;19938;-58
2022/05/30 14:07:51;;;;;;;;;;;24.30;40.10;;;;;;6131621;27;20142;-59
2022/05/30 14:10:54;;;;;;;;;;;24.00;39.90;;;;;;6164372;27;20006;-57
2022/05/30 14:13:55;;;;;;;;;;;24.20;40.10;;;;;;6165182;27;20050;-58
2022/05/30 14:16:58;;;;;;;;;;;24.00;39.80;;;;;;6180780;27;19930;-55
2022/05/30 14:20:28;;;;;;;;;;;24.30;40.00;;;;;;6166634;27;19931;-54
2022/05/30 14:23:33;;;;;;;;;;;24.30;40.00;;;;;;6197903;27;21079;-54
2022/05/30 14:27:02;;;;;;;;;;;24.30;40.00;;;;;;6194942;27;19935;-56
2022/05/30 14:30:06;;;;;;;;;;;24.40;40.10;;;;;;6129035;27;20011;-58
2022/05/30 14:33:11;;;;;;;;;;;24.20;39.90;;;;;;6130345;27;19931;-57
2022/05/30 14:36:28;;;;;;;;;;;24.20;39.90;;;;;;6139946;27;20046;-57
2022/05/30 14:39:54;;;;;;;;;;;24.20;39.50;;;;;;6110850;27;19930;-61
2022/05/30 14:42:56;;;;;;;;;;;24.20;39.60;;;;;;6153054;27;20065;-61
2022/05/30 14:46:01;;;;;;;;;;;24.30;39.80;;;;;;6167124;27;20026;-58
2022/05/30 14:49:03;;;;;;;;;;;24.00;39.60;;;;;;6147057;27;21342;-59
2022/05/30 14:52:06;;;;;;;;;;;24.30;39.80;;;;;;6165811;27;19970;-63
2022/05/30 14:55:11;;;;;;;;;;;24.30;39.90;;;;;;6178572;27;20123;-61
2022/05/30 14:58:23;;;;;;;;;;;24.30;39.80;;;;;;6149976;27;20626;-59
2022/05/30 15:01:24;;;;;;;;;;;24.00;39.60;;;;;;6139277;27;19931;-56
2022/05/30 15:04:26;;;;;;;;;;;24.20;39.80;;;;;;6171294;27;19978;-57
2022/05/30 15:07:32;;;;;;;;;;;24.00;39.60;;;;;;6169786;27;19931;-60
2022/05/30 15:10:33;;;;;;;;;;;24.40;39.90;;;;;;6159437;27;21656;-60
2022/05/30 15:13:35;;;;;;;;;;;24.40;39.80;;;;;;6166463;27;19930;-60
2022/05/30 15:16:36;;;;;;;;;;;24.30;39.70;;;;;;6169041;27;20069;-59
2022/05/30 15:19:38;;;;;;;;;;;24.10;39.50;;;;;;6189855;27;19931;-59
2022/05/30 15:22:40;;;;;;;;;;;24.30;39.60;;;;;;6197620;27;19977;-57
2022/05/30 15:25:45;;;;;;;;;;;24.30;39.60;;;;;;6207100;27;19931;-60
2022/05/30 15:32:17;;;;;;;;;;;24.30;39.60;;;;;;6223318;27;21220;-60
2022/05/30 15:35:19;;;;;;;;;;;24.30;39.60;;;;;;6197952;27;20292;-60
2022/05/30 15:38:21;;;;;;;;;;;24.30;40.30;;;;;;6187467;27;19962;-64
2022/05/30 15:41:33;;;;;;;;;;;24.20;39.60;;;;;;6229869;27;19935;-60
2022/05/30 15:44:36;;;;;;;;;;;24.40;39.70;;;;;;6224411;27;19967;-63
2022/05/30 15:47:37;;;;;;;;;;;24.00;40.10;;;;;;6188452;27;19934;-63
2022/05/30 15:50:41;;;;;;;;;;;24.40;39.70;;;;;;6232974;27;21828;-61
2022/05/30 15:57:21;;;;;;;;;;;24.10;39.50;;;;;;6235858;27;19930;-57
2022/05/30 16:00:23;;;;;;;;;;;24.10;39.50;;;;;;6219521;27;19931;-58
2022/05/30 16:03:25;;;;;;;;;;;24.40;39.70;;;;;;6237149;27;19931;-57
2022/05/30 16:06:30;;;;;;;;;;;24.20;39.50;;;;;;6262787;27;21831;-57
2022/05/30 16:09:33;;;;;;;;;;;24.30;39.50;;;;;;6259136;27;29307;-57
2022/05/30 16:12:36;;;;;;;;;;;24.20;39.50;;;;;;6273422;27;28978;-59
2022/05/30 16:15:37;;;;;;;;;;;24.40;39.60;;;;;;6281722;27;20049;-57
2022/05/30 16:18:40;;;;;;;;;;;24.30;39.50;;;;;;6274668;27;19937;-59
2022/05/30 16:21:44;;;;;;;;;;;24.40;39.60;;;;;;6281477;27;20448;-60
2022/05/30 16:24:45;;;;;;;;;;;24.50;39.50;;;;;;6291775;27;19965;-54
2022/05/30 16:27:48;;;;;;;;;;;24.30;39.50;;;;;;6300490;27;27580;-60
2022/05/30 16:30:50;;;;;;;;;;;24.40;39.50;;;;;;6310124;27;19931;-59
2022/05/30 16:33:52;;;;;;;;;;;24.40;39.50;;;;;;6319685;27;19938;-60
2022/05/30 16:36:54;;;;;;;;;;;24.40;39.40;;;;;;6309816;27;19931;-60
2022/05/30 16:39:56;;;;;;;;;;;24.40;39.30;;;;;;6321995;27;19938;-57
2022/05/30 16:42:58;;;;;;;;;;;24.30;39.30;;;;;;6316380;27;19938;-59
2022/05/30 16:45:59;;;;;;;;;;;24.30;39.20;;;;;;6303253;27;19926;-57
2022/05/30 16:49:01;;;;;;;;;;;24.50;39.30;;;;;;6317176;27;19931;-58
2022/05/30 16:52:06;;;;;;;;;;;24.30;39.20;;;;;;6322536;27;20068;-58
2022/05/30 16:55:08;;;;;;;;;;;24.30;39.20;;;;;;6323322;27;19935;-59
2022/05/30 16:58:29;;;;;;;;;;;24.50;39.30;;;;;;6302206;27;19931;-57
2022/05/30 17:01:31;;;;;;;;;;;24.20;39.20;;;;;;6297694;27;19931;-59
2022/05/30 17:04:32;;;;;;;;;;;24.40;39.30;;;;;;6304272;27;21124;-60
2022/05/30 17:07:34;;;;;;;;;;;24.40;39.40;;;;;;6314329;27;19935;-57
2022/05/30 17:10:36;;;;;;;;;;;24.20;39.40;;;;;;6323148;27;20196;-59
2022/05/30 17:13:38;;;;;;;;;;;24.10;39.30;;;;;;6330054;27;21044;-59
2022/05/30 17:16:42;;;;;;;;;;;24.50;39.50;;;;;;6332735;27;20831;-57
2022/05/30 17:19:44;;;;;;;;;;;24.50;39.50;;;;;;6313126;27;20061;-60
2022/05/30 17:22:46;;;;;;;;;;;24.40;39.40;;;;;;6317045;27;19977;-59
2022/05/30 17:25:56;;;;;;;;;;;24.30;39.40;;;;;;6337467;27;19983;-54
2022/05/30 17:32:16;;;;;;;;;;;24.10;39.30;;;;;;6323197;27;19931;-59
2022/05/30 17:35:18;;;;;;;;;;;24.30;39.20;;;;;;6323957;27;19923;-57
2022/05/30 17:38:20;;;;;;;;;;;24.00;39.20;;;;;;6335410;27;19931;-58
2022/05/30 17:41:21;;;;;;;;;;;24.40;39.30;;;;;;6343453;27;20142;-57
2022/05/30 17:44:23;;;;;;;;;;;24.10;39.20;;;;;;6342523;27;20034;-59
2022/05/30 17:47:27;;;;;;;;;;;24.10;39.30;;;;;;6341380;27;19935;-59
2022/05/30 17:50:31;;;;;;;;;;;24.00;39.20;;;;;;6339106;27;19927;-58
2022/05/30 17:53:33;;;;;;;;;;;24.20;39.40;;;;;;6339105;27;20129;-57
2022/05/30 17:56:38;;;;;;;;;;;24.20;39.30;;;;;;6317096;27;19927;-59
2022/05/30 17:59:39;;;;;;;;;;;24.20;39.40;;;;;;6329969;27;19937;-57
2022/05/30 18:02:41;;;;;;;;;;;23.80;39.10;;;;;;6326560;27;20045;-60
2022/05/30 18:05:46;;;;;;;;;;;24.40;39.40;;;;;;6328857;27;19985;-60
2022/05/30 18:08:52;;;;;;;;;;;24.00;39.30;;;;;;6326413;27;19926;-60
2022/05/30 18:11:57;;;;;;;;;;;24.10;39.30;;;;;;6345873;27;19998;-59
2022/05/30 18:15:05;;;;;;;;;;;24.10;39.20;;;;;;6335924;27;19926;-60
2022/05/30 18:21:26;;;;;;;;;;;24.10;39.20;;;;;;6309628;27;20041;-60
2022/05/30 18:24:32;;;;;;;;;;;24.20;39.20;;;;;;6306323;27;20821;-57
2022/05/30 18:27:34;;;;;;;;;;;24.10;39.10;;;;;;6330691;27;20456;-60
2022/05/30 18:30:38;;;;;;;;;;;24.20;39.20;;;;;;6327038;27;20966;-60
2022/05/30 18:33:44;;;;;;;;;;;24.20;39.10;;;;;;6330646;27;19927;-59
2022/05/30 18:36:48;;;;;;;;;;;24.00;39.60;;;;;;6332945;27;19999;-61
2022/05/30 18:39:54;;;;;;;;;;;24.00;38.90;;;;;;6343403;27;20037;-60
2022/05/30 18:42:58;;;;;;;;;;;24.30;39.10;;;;;;6344911;27;19935;-64
2022/05/30 18:46:03;;;;;;;;;;;24.20;39.00;;;;;;6328069;27;19931;-57
2022/05/30 18:49:06;;;;;;;;;;;24.30;39.00;;;;;;6325658;27;19931;-60
2022/05/30 18:52:08;;;;;;;;;;;24.30;39.00;;;;;;6325773;27;19930;-59